sensor_id;sensor_type;location;lat;lon;timestamp;pressure;altitude;pressure_sealevel;temperature;humidity
27425;BME280;15244;49.088;11.886;2023-08-07T00:02:44;95167.84;;;14.29;60.47
27425;BME280;15244;49.088;11.886;2023-08-07T00:07:46;95171.34;;;14.30;60.31
27425;BME280;15244;49.088;11.886;2023-08-07T00:12:48;95181.91;;;14.31;60.33
27425;BME280;15244;49.088;11.886;2023-08-07T00:17:49;95155.34;;;14.28;60.40
27425;BME280;15244;49.088;11.886;2023-08-07T00:22:51;95166.84;;;14.20;60.60
27425;BME280;15244;49.088;11.886;2023-08-07T00:27:53;95174.72;;;14.18;60.68
27425;BME280;15244;49.088;11.886;2023-08-07T00:32:54;95164.22;;;14.13;60.70
27425;BME280;15244;49.088;11.886;2023-08-07T00:37:56;95152.63;;;14.05;60.81
27425;BME280;15244;49.088;11.886;2023-08-07T00:42:58;95154.13;;;14.09;60.82
27425;BME280;15244;49.088;11.886;2023-08-07T00:47:59;95154.69;;;14.01;60.86
27425;BME280;15244;49.088;11.886;2023-08-07T00:53:01;95159.25;;;14.07;60.76
27425;BME280;15244;49.088;11.886;2023-08-07T00:58:03;95158.06;;;14.08;60.89
27425;BME280;15244;49.088;11.886;2023-08-07T01:03:05;95156.00;;;14.13;60.78
27425;BME280;15244;49.088;11.886;2023-08-07T01:08:08;95156.84;;;14.09;60.56
27425;BME280;15244;49.088;11.886;2023-08-07T01:13:18;95164.78;;;14.04;60.78
27425;BME280;15244;49.088;11.886;2023-08-07T01:18:22;95160.84;;;14.05;60.92
27425;BME280;15244;49.088;11.886;2023-08-07T01:23:24;95175.53;;;13.95;60.98
27425;BME280;15244;49.088;11.886;2023-08-07T01:28:38;95179.53;;;13.90;61.21
27425;BME280;15244;49.088;11.886;2023-08-07T01:34:05;95177.09;;;13.96;60.91
27425;BME280;15244;49.088;11.886;2023-08-07T01:39:10;95184.09;;;13.97;60.90
27425;BME280;15244;49.088;11.886;2023-08-07T01:44:12;95185.72;;;13.94;61.03
27425;BME280;15244;49.088;11.886;2023-08-07T01:49:14;95174.06;;;13.90;61.24
27425;BME280;15244;49.088;11.886;2023-08-07T01:54:15;95170.47;;;13.93;61.05
27425;BME280;15244;49.088;11.886;2023-08-07T01:59:17;95201.69;;;13.99;60.95
27425;BME280;15244;49.088;11.886;2023-08-07T02:04:18;95179.88;;;13.92;61.18
27425;BME280;15244;49.088;11.886;2023-08-07T02:09:21;95188.44;;;13.94;61.21
27425;BME280;15244;49.088;11.886;2023-08-07T02:14:23;95206.09;;;13.93;61.03
27425;BME280;15244;49.088;11.886;2023-08-07T02:19:24;95205.44;;;13.85;61.19
27425;BME280;15244;49.088;11.886;2023-08-07T02:24:26;95200.66;;;13.90;61.11
27425;BME280;15244;49.088;11.886;2023-08-07T02:29:28;95217.19;;;13.86;61.23
27425;BME280;15244;49.088;11.886;2023-08-07T02:34:31;95215.22;;;13.86;61.23
27425;BME280;15244;49.088;11.886;2023-08-07T02:39:33;95214.03;;;13.87;61.04
27425;BME280;15244;49.088;11.886;2023-08-07T02:44:34;95218.00;;;13.83;61.25
27425;BME280;15244;49.088;11.886;2023-08-07T02:49:36;95213.34;;;13.80;61.20
27425;BME280;15244;49.088;11.886;2023-08-07T02:54:37;95216.16;;;13.76;61.31
27425;BME280;15244;49.088;11.886;2023-08-07T02:59:39;95226.34;;;13.76;61.26
27425;BME280;15244;49.088;11.886;2023-08-07T03:04:40;95232.78;;;13.65;61.35
27425;BME280;15244;49.088;11.886;2023-08-07T03:09:45;95240.25;;;13.61;61.57
27425;BME280;15244;49.088;11.886;2023-08-07T03:14:48;95227.69;;;13.64;61.28
27425;BME280;15244;49.088;11.886;2023-08-07T03:19:50;95240.72;;;13.56;61.55
27425;BME280;15244;49.088;11.886;2023-08-07T03:24:51;95248.25;;;13.52;61.35
27425;BME280;15244;49.088;11.886;2023-08-07T03:29:53;95274.81;;;13.52;61.66
27425;BME280;15244;49.088;11.886;2023-08-07T03:34:59;95257.72;;;13.44;61.63
27425;BME280;15244;49.088;11.886;2023-08-07T03:40:01;95264.78;;;13.45;61.99
27425;BME280;15244;49.088;11.886;2023-08-07T03:45:03;95266.22;;;13.53;61.54
27425;BME280;15244;49.088;11.886;2023-08-07T03:50:05;95272.97;;;13.45;61.61
27425;BME280;15244;49.088;11.886;2023-08-07T03:55:09;95271.38;;;13.48;61.56
27425;BME280;15244;49.088;11.886;2023-08-07T04:00:11;95330.06;;;13.47;61.59
27425;BME280;15244;49.088;11.886;2023-08-07T04:05:15;95304.34;;;13.40;61.77
27425;BME280;15244;49.088;11.886;2023-08-07T04:10:17;95313.84;;;13.32;61.99
27425;BME280;15244;49.088;11.886;2023-08-07T04:15:19;95307.94;;;13.34;61.77
27425;BME280;15244;49.088;11.886;2023-08-07T04:20:20;95318.34;;;13.46;61.67
27425;BME280;15244;49.088;11.886;2023-08-07T04:25:22;95321.34;;;13.55;61.37
27425;BME280;15244;49.088;11.886;2023-08-07T04:30:24;95328.00;;;13.54;61.20
27425;BME280;15244;49.088;11.886;2023-08-07T04:35:25;95330.41;;;13.52;61.48
27425;BME280;15244;49.088;11.886;2023-08-07T04:40:27;95327.69;;;13.49;61.48
27425;BME280;15244;49.088;11.886;2023-08-07T04:45:28;95348.38;;;13.53;61.36
27425;BME280;15244;49.088;11.886;2023-08-07T04:50:30;95340.53;;;13.55;61.37
27425;BME280;15244;49.088;11.886;2023-08-07T04:55:32;95337.03;;;13.51;61.31
27425;BME280;15244;49.088;11.886;2023-08-07T05:00:33;95356.28;;;13.48;61.64
27425;BME280;15244;49.088;11.886;2023-08-07T05:05:35;95367.25;;;13.44;61.62
27425;BME280;15244;49.088;11.886;2023-08-07T05:10:37;95366.47;;;13.47;61.41
27425;BME280;15244;49.088;11.886;2023-08-07T05:15:38;95370.75;;;13.48;61.58
27425;BME280;15244;49.088;11.886;2023-08-07T05:20:42;95394.28;;;13.42;61.47
27425;BME280;15244;49.088;11.886;2023-08-07T05:25:47;95380.78;;;13.28;61.80
27425;BME280;15244;49.088;11.886;2023-08-07T05:30:50;95386.16;;;13.35;61.62
27425;BME280;15244;49.088;11.886;2023-08-07T05:35:51;95394.75;;;13.37;61.60
27425;BME280;15244;49.088;11.886;2023-08-07T05:40:54;95402.97;;;13.37;61.39
27425;BME280;15244;49.088;11.886;2023-08-07T05:45:55;95414.63;;;13.41;61.76
27425;BME280;15244;49.088;11.886;2023-08-07T05:50:57;95384.66;;;13.30;61.65
27425;BME280;15244;49.088;11.886;2023-08-07T05:55:59;95416.31;;;13.31;61.78
27425;BME280;15244;49.088;11.886;2023-08-07T06:01:00;95437.44;;;13.31;61.55
27425;BME280;15244;49.088;11.886;2023-08-07T06:06:02;95417.16;;;13.25;61.71
27425;BME280;15244;49.088;11.886;2023-08-07T06:11:04;95426.47;;;13.34;61.54
27425;BME280;15244;49.088;11.886;2023-08-07T06:16:06;95423.66;;;13.38;62.02
27425;BME280;15244;49.088;11.886;2023-08-07T06:21:09;95447.13;;;13.39;61.55
27425;BME280;15244;49.088;11.886;2023-08-07T06:26:12;95438.56;;;13.37;61.37
27425;BME280;15244;49.088;11.886;2023-08-07T06:31:15;95438.13;;;13.38;61.57
27425;BME280;15244;49.088;11.886;2023-08-07T06:36:17;95446.31;;;13.42;61.53
27425;BME280;15244;49.088;11.886;2023-08-07T06:41:19;95453.75;;;13.41;61.38
27425;BME280;15244;49.088;11.886;2023-08-07T06:46:20;95464.28;;;13.43;61.44
27425;BME280;15244;49.088;11.886;2023-08-07T06:51:25;95457.22;;;13.46;61.58
27425;BME280;15244;49.088;11.886;2023-08-07T06:56:27;95466.97;;;13.47;61.63
27425;BME280;15244;49.088;11.886;2023-08-07T07:01:29;95470.09;;;13.49;61.61
27425;BME280;15244;49.088;11.886;2023-08-07T07:06:30;95478.31;;;13.49;61.44
27425;BME280;15244;49.088;11.886;2023-08-07T07:11:32;95481.16;;;13.38;61.33
27425;BME280;15244;49.088;11.886;2023-08-07T07:16:33;95485.81;;;13.41;61.60
27425;BME280;15244;49.088;11.886;2023-08-07T07:21:35;95505.38;;;13.43;61.94
27425;BME280;15244;49.088;11.886;2023-08-07T07:26:37;95504.22;;;13.40;61.51
27425;BME280;15244;49.088;11.886;2023-08-07T07:31:38;95506.63;;;13.35;61.67
27425;BME280;15244;49.088;11.886;2023-08-07T07:36:40;95512.06;;;13.38;61.57
27425;BME280;15244;49.088;11.886;2023-08-07T07:41:41;95507.34;;;13.42;61.47
27425;BME280;15244;49.088;11.886;2023-08-07T07:46:43;95518.22;;;13.50;61.19
27425;BME280;15244;49.088;11.886;2023-08-07T07:51:45;95529.19;;;13.46;61.91
27425;BME280;15244;49.088;11.886;2023-08-07T07:56:47;95536.25;;;13.43;61.75
27425;BME280;15244;49.088;11.886;2023-08-07T08:01:49;95546.88;;;13.38;61.52
27425;BME280;15244;49.088;11.886;2023-08-07T08:06:50;95557.13;;;13.30;62.03
27425;BME280;15244;49.088;11.886;2023-08-07T08:11:52;95570.38;;;13.35;62.17
27425;BME280;15244;49.088;11.886;2023-08-07T08:16:54;95562.16;;;13.35;61.97
27425;BME280;15244;49.088;11.886;2023-08-07T08:21:56;95574.66;;;13.40;62.16
27425;BME280;15244;49.088;11.886;2023-08-07T08:26:57;95583.69;;;13.33;62.02
27425;BME280;15244;49.088;11.886;2023-08-07T08:31:59;95584.88;;;13.32;62.13
27425;BME280;15244;49.088;11.886;2023-08-07T08:37:01;95602.84;;;13.37;62.24
27425;BME280;15244;49.088;11.886;2023-08-07T08:42:03;95588.28;;;13.43;62.22
27425;BME280;15244;49.088;11.886;2023-08-07T08:47:06;95597.66;;;13.50;62.01
27425;BME280;15244;49.088;11.886;2023-08-07T08:52:08;95608.59;;;13.50;61.91
27425;BME280;15244;49.088;11.886;2023-08-07T08:57:11;95613.66;;;13.51;61.97
27425;BME280;15244;49.088;11.886;2023-08-07T09:02:13;95623.44;;;13.52;61.86
27425;BME280;15244;49.088;11.886;2023-08-07T09:07:15;95619.13;;;13.55;61.97
27425;BME280;15244;49.088;11.886;2023-08-07T09:12:24;95637.47;;;13.58;61.82
27425;BME280;15244;49.088;11.886;2023-08-07T09:17:28;95633.97;;;13.57;61.76
27425;BME280;15244;49.088;11.886;2023-08-07T09:22:33;95652.81;;;13.48;62.05
27425;BME280;15244;49.088;11.886;2023-08-07T09:27:34;95644.94;;;13.54;61.88
27425;BME280;15244;49.088;11.886;2023-08-07T09:32:39;95664.50;;;13.56;61.56
27425;BME280;15244;49.088;11.886;2023-08-07T09:37:43;95662.91;;;13.58;61.77
27425;BME280;15244;49.088;11.886;2023-08-07T09:42:50;95660.91;;;13.62;61.74
27425;BME280;15244;49.088;11.886;2023-08-07T09:48:02;95678.56;;;13.58;61.68
27425;BME280;15244;49.088;11.886;2023-08-07T09:53:04;95680.88;;;13.59;61.76
27425;BME280;15244;49.088;11.886;2023-08-07T09:58:08;95681.22;;;13.69;61.54
27425;BME280;15244;49.088;11.886;2023-08-07T10:03:13;95687.13;;;13.63;61.77
27425;BME280;15244;49.088;11.886;2023-08-07T10:08:15;95687.94;;;13.57;62.01
27425;BME280;15244;49.088;11.886;2023-08-07T10:13:17;95691.06;;;13.62;61.94
27425;BME280;15244;49.088;11.886;2023-08-07T10:18:23;95682.75;;;13.73;62.09
27425;BME280;15244;49.088;11.886;2023-08-07T10:23:25;95725.38;;;13.74;62.33
27425;BME280;15244;49.088;11.886;2023-08-07T10:28:27;95699.91;;;13.81;62.32
27425;BME280;15244;49.088;11.886;2023-08-07T10:33:31;95692.50;;;13.78;62.29
27425;BME280;15244;49.088;11.886;2023-08-07T10:38:35;95707.78;;;13.75;62.35
27425;BME280;15244;49.088;11.886;2023-08-07T10:43:41;95707.72;;;13.79;62.26
27425;BME280;15244;49.088;11.886;2023-08-07T10:48:44;95721.00;;;13.84;62.24
27425;BME280;15244;49.088;11.886;2023-08-07T10:53:49;95712.41;;;13.82;62.38
27425;BME280;15244;49.088;11.886;2023-08-07T10:58:52;95707.69;;;13.86;62.21
27425;BME280;15244;49.088;11.886;2023-08-07T11:03:56;95704.47;;;13.95;62.00
27425;BME280;15244;49.088;11.886;2023-08-07T11:08:58;95702.09;;;13.97;62.04
27425;BME280;15244;49.088;11.886;2023-08-07T11:14:00;95718.91;;;13.99;62.09
27425;BME280;15244;49.088;11.886;2023-08-07T11:19:03;95707.94;;;13.99;62.32
27425;BME280;15244;49.088;11.886;2023-08-07T11:24:05;95737.28;;;14.05;62.24
27425;BME280;15244;49.088;11.886;2023-08-07T11:29:07;95721.97;;;14.08;62.18
27425;BME280;15244;49.088;11.886;2023-08-07T11:34:10;95717.63;;;14.11;62.15
27425;BME280;15244;49.088;11.886;2023-08-07T11:39:13;95718.00;;;14.13;61.99
27425;BME280;15244;49.088;11.886;2023-08-07T11:44:15;95739.56;;;14.11;61.79
27425;BME280;15244;49.088;11.886;2023-08-07T11:49:19;95733.66;;;14.16;62.01
27425;BME280;15244;49.088;11.886;2023-08-07T11:54:21;95728.63;;;14.07;61.70
27425;BME280;15244;49.088;11.886;2023-08-07T11:59:24;95734.09;;;14.11;61.79
27425;BME280;15244;49.088;11.886;2023-08-07T12:04:25;95747.81;;;14.07;61.96
27425;BME280;15244;49.088;11.886;2023-08-07T12:09:27;95738.78;;;14.10;61.71
27425;BME280;15244;49.088;11.886;2023-08-07T12:14:30;95743.03;;;14.15;61.83
27425;BME280;15244;49.088;11.886;2023-08-07T12:19:38;95746.16;;;14.17;61.69
27425;BME280;15244;49.088;11.886;2023-08-07T12:24:41;95751.66;;;14.17;61.05
27425;BME280;15244;49.088;11.886;2023-08-07T12:29:44;95776.38;;;14.13;61.67
27425;BME280;15244;49.088;11.886;2023-08-07T12:34:45;95754.81;;;14.12;61.69
27425;BME280;15244;49.088;11.886;2023-08-07T12:39:50;95766.13;;;14.17;61.84
27425;BME280;15244;49.088;11.886;2023-08-07T12:44:54;95766.13;;;14.17;61.97
27425;BME280;15244;49.088;11.886;2023-08-07T12:49:56;95763.00;;;14.15;62.04
27425;BME280;15244;49.088;11.886;2023-08-07T12:55:00;95772.31;;;14.25;62.06
27425;BME280;15244;49.088;11.886;2023-08-07T13:00:02;95764.09;;;14.28;62.14
27425;BME280;15244;49.088;11.886;2023-08-07T13:05:04;95759.38;;;14.29;62.15
27425;BME280;15244;49.088;11.886;2023-08-07T13:10:07;95773.41;;;14.35;62.17
27425;BME280;15244;49.088;11.886;2023-08-07T13:15:12;95779.16;;;14.47;62.17
27425;BME280;15244;49.088;11.886;2023-08-07T13:20:16;95809.00;;;14.42;62.33
27425;BME280;15244;49.088;11.886;2023-08-07T13:25:19;95790.94;;;14.44;62.20
27425;BME280;15244;49.088;11.886;2023-08-07T13:30:20;95798.41;;;14.44;61.87
27425;BME280;15244;49.088;11.886;2023-08-07T13:35:22;95794.91;;;14.43;62.03
27425;BME280;15244;49.088;11.886;2023-08-07T13:40:24;95795.25;;;14.45;61.94
27425;BME280;15244;49.088;11.886;2023-08-07T13:45:25;95803.41;;;14.56;61.84
27425;BME280;15244;49.088;11.886;2023-08-07T13:50:27;95799.47;;;14.57;61.77
27425;BME280;15244;49.088;11.886;2023-08-07T13:55:29;95816.66;;;14.65;61.82
27425;BME280;15244;49.088;11.886;2023-08-07T14:00:30;95813.06;;;14.68;61.45
27425;BME280;15244;49.088;11.886;2023-08-07T14:05:32;95826.34;;;14.73;61.43
27425;BME280;15244;49.088;11.886;2023-08-07T14:10:34;95833.81;;;14.72;61.16
27425;BME280;15244;49.088;11.886;2023-08-07T14:15:37;95859.72;;;14.68;61.05
27425;BME280;15244;49.088;11.886;2023-08-07T14:20:39;95849.91;;;14.70;60.97
27425;BME280;15244;49.088;11.886;2023-08-07T14:26:01;95869.81;;;14.82;60.99
27425;BME280;15244;49.088;11.886;2023-08-07T14:31:07;95862.28;;;14.86;61.16
27425;BME280;15244;49.088;11.886;2023-08-07T14:36:09;95885.50;;;14.81;60.92
27425;BME280;15244;49.088;11.886;2023-08-07T14:41:11;95868.72;;;14.72;61.14
27425;BME280;15244;49.088;11.886;2023-08-07T14:46:13;95876.63;;;14.66;61.35
27425;BME280;15244;49.088;11.886;2023-08-07T14:51:15;95881.00;;;14.57;61.38
27425;BME280;15244;49.088;11.886;2023-08-07T14:56:17;95893.13;;;14.59;61.43
27425;BME280;15244;49.088;11.886;2023-08-07T15:01:18;95909.50;;;14.70;61.04
27425;BME280;15244;49.088;11.886;2023-08-07T15:06:20;95927.22;;;14.62;61.21
27425;BME280;15244;49.088;11.886;2023-08-07T15:11:23;95923.34;;;14.56;61.15
27425;BME280;15244;49.088;11.886;2023-08-07T15:16:24;95905.38;;;14.44;60.85
27425;BME280;15244;49.088;11.886;2023-08-07T15:21:26;95912.03;;;14.46;61.14
27425;BME280;15244;49.088;11.886;2023-08-07T15:26:28;95916.28;;;14.55;60.96
27425;BME280;15244;49.088;11.886;2023-08-07T15:31:29;95928.81;;;14.56;60.83
27425;BME280;15244;49.088;11.886;2023-08-07T15:36:31;95919.44;;;14.53;60.88
27425;BME280;15244;49.088;11.886;2023-08-07T15:41:32;95913.94;;;14.57;60.90
27425;BME280;15244;49.088;11.886;2023-08-07T15:46:34;95914.22;;;14.66;60.71
27425;BME280;15244;49.088;11.886;2023-08-07T15:51:36;95929.47;;;14.70;60.83
27425;BME280;15244;49.088;11.886;2023-08-07T15:56:37;95930.31;;;14.67;60.57
27425;BME280;15244;49.088;11.886;2023-08-07T16:01:39;95923.59;;;14.72;60.43
27425;BME280;15244;49.088;11.886;2023-08-07T16:06:40;95931.84;;;14.72;60.49
27425;BME280;15244;49.088;11.886;2023-08-07T16:11:42;95934.13;;;14.77;60.36
27425;BME280;15244;49.088;11.886;2023-08-07T16:16:43;95928.22;;;14.82;60.27
27425;BME280;15244;49.088;11.886;2023-08-07T16:21:46;95939.16;;;14.86;60.14
27425;BME280;15244;49.088;11.886;2023-08-07T16:26:48;95927.78;;;14.87;60.07
27425;BME280;15244;49.088;11.886;2023-08-07T16:31:49;95927.72;;;14.91;60.26
27425;BME280;15244;49.088;11.886;2023-08-07T16:36:53;95926.13;;;14.93;60.11
27425;BME280;15244;49.088;11.886;2023-08-07T16:41:55;95921.78;;;14.96;59.96
27425;BME280;15244;49.088;11.886;2023-08-07T16:46:57;95923.00;;;14.95;59.83
27425;BME280;15244;49.088;11.886;2023-08-07T16:51:58;95913.53;;;15.00;59.84
27425;BME280;15244;49.088;11.886;2023-08-07T16:57:00;95915.88;;;15.01;59.68
27425;BME280;15244;49.088;11.886;2023-08-07T17:02:02;95917.88;;;14.97;59.66
27425;BME280;15244;49.088;11.886;2023-08-07T17:07:05;95916.66;;;15.02;59.55
27425;BME280;15244;49.088;11.886;2023-08-07T17:12:07;95918.16;;;15.06;59.39
27425;BME280;15244;49.088;11.886;2023-08-07T17:17:09;95912.31;;;15.04;59.32
27425;BME280;15244;49.088;11.886;2023-08-07T17:22:10;95910.72;;;15.07;59.20
27425;BME280;15244;49.088;11.886;2023-08-07T17:27:12;95915.78;;;15.08;59.33
27425;BME280;15244;49.088;11.886;2023-08-07T17:32:13;95915.34;;;15.13;59.25
27425;BME280;15244;49.088;11.886;2023-08-07T17:37:15;95920.00;;;15.20;59.04
27425;BME280;15244;49.088;11.886;2023-08-07T17:42:17;95924.28;;;15.25;58.96
27425;BME280;15244;49.088;11.886;2023-08-07T17:47:18;95923.06;;;15.29;59.14
27425;BME280;15244;49.088;11.886;2023-08-07T17:52:20;95916.66;;;15.39;59.24
27425;BME280;15244;49.088;11.886;2023-08-07T17:57:21;95932.59;;;15.52;59.06
27425;BME280;15244;49.088;11.886;2023-08-07T18:02:23;95931.72;;;15.58;58.78
27425;BME280;15244;49.088;11.886;2023-08-07T18:07:25;95935.25;;;15.59;58.87
27425;BME280;15244;49.088;11.886;2023-08-07T18:12:27;95933.31;;;15.56;58.65
27425;BME280;15244;49.088;11.886;2023-08-07T18:17:29;95942.72;;;15.58;58.57
27425;BME280;15244;49.088;11.886;2023-08-07T18:22:33;95953.75;;;15.55;57.88
27425;BME280;15244;49.088;11.886;2023-08-07T18:27:35;95957.69;;;15.54;57.95
27425;BME280;15244;49.088;11.886;2023-08-07T18:32:36;95958.06;;;15.56;57.87
27425;BME280;15244;49.088;11.886;2023-08-07T18:37:39;95965.09;;;15.57;57.58
27425;BME280;15244;49.088;11.886;2023-08-07T18:42:41;95966.69;;;15.54;57.49
27425;BME280;15244;49.088;11.886;2023-08-07T18:47:44;95965.94;;;15.54;57.42
27425;BME280;15244;49.088;11.886;2023-08-07T18:52:46;95978.50;;;15.55;57.21
27425;BME280;15244;49.088;11.886;2023-08-07T18:57:48;95977.28;;;15.56;57.45
27425;BME280;15244;49.088;11.886;2023-08-07T19:02:49;95970.25;;;15.55;57.07
27425;BME280;15244;49.088;11.886;2023-08-07T19:07:51;95972.63;;;15.53;56.98
27425;BME280;15244;49.088;11.886;2023-08-07T19:12:52;95972.66;;;15.49;56.83
27425;BME280;15244;49.088;11.886;2023-08-07T19:17:54;95963.25;;;15.47;57.08
27425;BME280;15244;49.088;11.886;2023-08-07T19:22:56;95973.16;;;15.41;57.04
27425;BME280;15244;49.088;11.886;2023-08-07T19:27:57;95964.53;;;15.38;56.59
27425;BME280;15244;49.088;11.886;2023-08-07T19:32:59;95972.81;;;15.35;56.88
27425;BME280;15244;49.088;11.886;2023-08-07T19:38:01;95983.06;;;15.31;56.90
27425;BME280;15244;49.088;11.886;2023-08-07T19:43:03;95979.59;;;15.27;57.06
27425;BME280;15244;49.088;11.886;2023-08-07T19:48:05;95982.34;;;15.23;57.13
27425;BME280;15244;49.088;11.886;2023-08-07T19:53:06;95977.28;;;15.18;57.06
27425;BME280;15244;49.088;11.886;2023-08-07T19:58:08;95975.38;;;15.15;57.45
27425;BME280;15244;49.088;11.886;2023-08-07T20:03:10;95977.72;;;15.13;57.04
27425;BME280;15244;49.088;11.886;2023-08-07T20:08:13;95970.72;;;15.08;56.86
27425;BME280;15244;49.088;11.886;2023-08-07T20:13:14;95975.47;;;15.04;56.66
27425;BME280;15244;49.088;11.886;2023-08-07T20:18:16;95963.34;;;15.02;56.73
27425;BME280;15244;49.088;11.886;2023-08-07T20:23:18;95960.22;;;15.00;57.02
27425;BME280;15244;49.088;11.886;2023-08-07T20:28:19;95964.19;;;14.95;56.72
27425;BME280;15244;49.088;11.886;2023-08-07T20:33:21;95977.91;;;14.95;56.76
27425;BME280;15244;49.088;11.886;2023-08-07T20:38:22;95973.63;;;14.90;56.90
27425;BME280;15244;49.088;11.886;2023-08-07T20:43:24;95974.44;;;14.87;56.78
27425;BME280;15244;49.088;11.886;2023-08-07T20:48:26;95978.78;;;14.85;56.93
27425;BME280;15244;49.088;11.886;2023-08-07T20:53:27;95969.34;;;14.86;56.39
27425;BME280;15244;49.088;11.886;2023-08-07T20:58:29;95981.13;;;14.86;56.95
27425;BME280;15244;49.088;11.886;2023-08-07T21:03:32;95974.81;;;14.89;56.76
27425;BME280;15244;49.088;11.886;2023-08-07T21:08:34;95974.44;;;14.87;56.90
27425;BME280;15244;49.088;11.886;2023-08-07T21:13:36;95975.63;;;14.86;56.80
27425;BME280;15244;49.088;11.886;2023-08-07T21:18:39;95975.25;;;14.84;56.79
27425;BME280;15244;49.088;11.886;2023-08-07T21:23:41;95970.53;;;14.85;56.59
27425;BME280;15244;49.088;11.886;2023-08-07T21:28:42;95973.69;;;14.83;56.71
27425;BME280;15244;49.088;11.886;2023-08-07T21:33:44;95971.34;;;14.82;56.66
27425;BME280;15244;49.088;11.886;2023-08-07T21:38:45;95975.66;;;14.83;56.12
27425;BME280;15244;49.088;11.886;2023-08-07T21:43:47;95976.41;;;14.83;56.20
27425;BME280;15244;49.088;11.886;2023-08-07T21:48:49;95978.41;;;14.83;56.87
27425;BME280;15244;49.088;11.886;2023-08-07T21:53:50;95978.81;;;14.81;56.53
27425;BME280;15244;49.088;11.886;2023-08-07T21:58:53;95974.13;;;14.78;56.44
27425;BME280;15244;49.088;11.886;2023-08-07T22:03:55;95978.06;;;14.77;56.25
27425;BME280;15244;49.088;11.886;2023-08-07T22:08:56;95974.94;;;14.75;56.30
27425;BME280;15244;49.088;11.886;2023-08-07T22:13:58;95978.44;;;14.76;56.18
27425;BME280;15244;49.088;11.886;2023-08-07T22:19:01;95967.47;;;14.76;56.05
27425;BME280;15244;49.088;11.886;2023-08-07T22:24:02;95969.84;;;14.73;56.21
27425;BME280;15244;49.088;11.886;2023-08-07T22:29:04;95981.22;;;14.72;55.93
27425;BME280;15244;49.088;11.886;2023-08-07T22:34:06;95968.34;;;14.65;56.16
27425;BME280;15244;49.088;11.886;2023-08-07T22:39:07;95969.97;;;14.56;56.02
27425;BME280;15244;49.088;11.886;2023-08-07T22:44:09;95963.34;;;14.49;56.13
27425;BME280;15244;49.088;11.886;2023-08-07T22:49:11;95956.66;;;14.50;56.18
27425;BME280;15244;49.088;11.886;2023-08-07T22:54:13;95954.31;;;14.56;56.19
27425;BME280;15244;49.088;11.886;2023-08-07T22:59:15;95957.78;;;14.60;56.15
27425;BME280;15244;49.088;11.886;2023-08-07T23:04:17;95953.47;;;14.63;56.23
27425;BME280;15244;49.088;11.886;2023-08-07T23:09:18;95955.03;;;14.64;55.94
27425;BME280;15244;49.088;11.886;2023-08-07T23:14:20;95961.69;;;14.66;55.89
27425;BME280;15244;49.088;11.886;2023-08-07T23:19:22;95959.28;;;14.68;55.58
27425;BME280;15244;49.088;11.886;2023-08-07T23:24:24;95954.63;;;14.65;55.72
27425;BME280;15244;49.088;11.886;2023-08-07T23:29:25;95948.78;;;14.60;55.86
27425;BME280;15244;49.088;11.886;2023-08-07T23:34:27;95946.84;;;14.57;55.72
27425;BME280;15244;49.088;11.886;2023-08-07T23:39:28;95941.75;;;14.55;55.72
27425;BME280;15244;49.088;11.886;2023-08-07T23:44:30;95937.84;;;14.52;55.51
27425;BME280;15244;49.088;11.886;2023-08-07T23:49:32;95934.72;;;14.50;55.69
27425;BME280;15244;49.088;11.886;2023-08-07T23:54:34;95932.00;;;14.47;55.50
27425;BME280;15244;49.088;11.886;2023-08-07T23:59:35;95935.13;;;14.45;55.66
